x

9410230 - La Jolla, Ca (ljac1) Weather Station

3:18 - Fri 6th May 2016 All times are PDT. -7 hours from GMT.

  • Wind
    7mph, 8mph gusts
  • Sea Temp 65°f
  • Aire Temp 58°f
  • Sea Pressure 1010.6mb
  • 9410230 - La Jolla, Ca
  • 9410230 - La Jolla, Ca

More Historic Weather Station data

Upgrade to MSW Pro to gain access to the past 30 days of data for over 8000 Wavebouys and Weather Stations around the globe.

Join Pro

Comparision Forecast

View Surf forecast
   
vie 05/06 3:18 7 8 mph 1010.6mb 65f 58f
3:12 7 8 mph 1010.6mb 66f 58f
3:06 6 8 mph 1010.6mb 66f 58f
3:00 6 8 mph 1010.6mb 66f 58f
2:54 2 6 mph 1010.7mb 66f 58f
2:48 5 8 mph 1010.7mb 66f 58f
2:42 6 9 mph 1010.7mb 66f 58f
2:36 8 9 mph 1010.6mb 66f 58f
2:30 5 6 mph 1010.6mb 66f 58f
2:24 6 8 mph 1010.6mb 66f 58f
2:18 7 8 mph 1010.6mb 66f 58f
2:12 6 8 mph 1010.7mb 66f 58f
2:06 8 10 mph 1010.7mb 66f 58f
2:00 8 10 mph 1010.8mb 66f 58f
1:54 9 11 mph 1010.8mb 66f 58f
1:48 9 11 mph 1010.8mb 65f 58f
1:42 9 11 mph 1010.9mb 65f 58f
1:36 10 11 mph 1011mb 65f 58f
1:30 9 11 mph 1011.1mb 65f 58f
1:24 10 11 mph 1011.3mb 65f 58f
1:18 9 11 mph 1011.4mb 66f 59f
1:12 8 10 mph 1011.4mb 66f 58f
1:06 8 10 mph 1011.6mb 66f 58f
1:00 6 9 mph 1011.7mb 66f 59f
12:54 6 8 mph 1011.8mb 65f 59f
12:48 6 8 mph 1011.9mb 65f 59f
12:42 7 8 mph 1011.9mb 65f 59f
12:36 5 6 mph 1012mb 65f 59f
12:30 2 5 mph 1012mb 65f 60f
12:24 3 5 mph 1012.1mb 65f 59f
12:18 3 5 mph 1012.1mb 65f 59f
12:12 3 5 mph 1012.1mb 65f 59f
12:06 5 6 mph 1012.1mb 65f 59f
12:00 3 5 mph 1012.1mb 65f 59f
jue 05/05 11:54 3 5 mph 1012.1mb 65f 59f
11:48 5 6 mph 1012.1mb 66f 59f
11:42 2 3 mph 1012.1mb 66f 59f
11:36 2
mph
1012.1mb 66f 59f
11:30 2 3 mph 1012.1mb 66f 59f
11:24  -  2 mph 1012.2mb 66f 59f
11:18 1 3 mph 1012.2mb 66f 59f
11:12 3 6 mph 1012.3mb 66f 59f
11:06 5 6 mph 1012.3mb 66f 59f
11:00 3 6 mph 1012.4mb 66f 60f
10:54 5 6 mph 1012.4mb 66f 60f
10:48  -  mph 1012.5mb 66f 60f
10:42  -  mph 1012.5mb 66f 61f
10:36  -  mph 1012.4mb 66f 61f
10:30 2 6 mph 1012.4mb 66f 62f
10:24 5 6 mph 1012.3mb 66f 61f
10:18 7 9 mph 1012.2mb 66f 61f
10:12 7 10 mph 1012mb 66f 62f
10:06 11 14 mph 1012mb 66f 62f
10:00 6 7 mph 1012.1mb 66f 63f
9:54 5 6 mph 1012.1mb 66f 63f
9:48 5 6 mph 1012.1mb 66f 63f
9:42 5 6 mph 1012mb 66f 63f
9:36 3 6 mph 1012.1mb 66f 63f
9:30 3 6 mph 1012mb 66f 63f
9:24 3 6 mph 1012mb 66f 63f
9:18 5 6 mph 1012mb 66f 63f
9:12 3 6 mph 1011.9mb 66f 63f
9:06 5 7 mph 1011.9mb 66f 63f
9:00 5 7 mph 1011.9mb 66f 63f
8:54 5 6 mph 1011.8mb 66f 63f
8:48  -  mph 1011.8mb 66f 63f
8:42  -  mph 1011.8mb 66f 63f
8:36  -  mph 1011.8mb 66f 63f
8:30 5 6 mph 1011.8mb 66f 63f
8:24 5 6 mph 1011.8mb 66f 63f
8:18 5 6 mph 1011.7mb 66f 63f
8:12 3 5 mph 1011.6mb 66f 63f
8:06 3 6 mph 1011.5mb 66f 63f
8:00  -  mph 1011.5mb 66f 63f
7:54  -  mph 1011.4mb 66f 63f
7:48  -  mph - 66f -
7:42  -  mph - 66f -
7:36  -  mph - 66f -
7:30 2 3 mph 1011.1mb 66f -
7:24 3 5 mph 1011mb 66f -
7:18  -  mph 1011.1mb 67f -
7:12  -  mph 1011.2mb 67f -
7:06  -  mph 1011.2mb 67f -
7:00  -  mph 1011.1mb - -
6:54  -  mph 1011.1mb - -
6:48  -  mph 1011.2mb 67f 63f
6:42  -  mph 1011.2mb 67f 63f
6:36  -  mph 1011.2mb 67f 63f
6:30  -  mph 1011.1mb 67f -
6:24  -  mph 1011.1mb 67f -
6:18  -  mph 1011.1mb 67f 63f
6:12  -  mph 1011.3mb 67f 63f
6:06  -  mph 1011.4mb 67f 63f
6:00  -  mph 1011.4mb 67f 63f
5:54  -  mph 1011.5mb 67f 63f
5:48  -  mph 1011.5mb 67f 64f
5:42  -  mph 1011.5mb 67f 63f
5:36  -  mph 1011.5mb 67f 63f
5:30 8 10 mph 1011.7mb - -
5:24 7 9 mph 1011.7mb - -
5:18  -  mph 1011.8mb 67f 64f
5:12  -  mph 1011.9mb 67f 64f
5:06  -  mph 1012mb 67f 64f
5:00 9 11 mph 1012.1mb 67f -
4:54 7 10 mph 1012.1mb 67f -
4:48  -  mph 1012.2mb - -
4:42  -  mph 1012.3mb - -
4:36  -  mph 1012.4mb - -
4:30 10 13 mph 1012.5mb 67f -
4:24 8 9 mph 1012.6mb 67f -
4:18  -  mph 1012.7mb 67f 63f
4:12  -  mph 1012.8mb 67f 64f
4:06  -  mph 1012.8mb 67f 63f
4:00  -  mph 1012.9mb 67f -
3:54  -  mph 1013mb 67f -
3:48  -  mph - 67f -
3:42  -  mph - 67f -
3:36  -  mph - 67f -
3:30 10 13 mph 1013.3mb 67f 64f
3:24 11 14 mph 1013.3mb 67f 64f
3:18  -  mph 1013.4mb 67f 64f
3:12  -  mph 1013.4mb 67f 64f
3:06  -  mph 1013.5mb 67f 64f
3:00 11 14 mph 1013.6mb 66f -
2:54 10 14 mph 1013.6mb 66f -
2:48  -  mph 1013.7mb 66f 63f
2:42  -  mph 1013.7mb 66f 64f
2:36  -  mph 1013.7mb 66f 64f
2:30 14 17 mph 1013.9mb 66f 64f
2:24 14 16 mph 1013.9mb 66f 64f
2:18 13 17 mph 1013.8mb 66f 64f
2:12 14 15 mph 1013.9mb 67f 64f
2:06 10 16 mph 1013.8mb 67f 64f
2:00 14 17 mph 1013.9mb 67f 64f
1:54 15 20 mph 1013.9mb 67f 64f
1:48 13 15 mph 1013.8mb 66f 64f
1:42 10 16 mph 1013.8mb 66f 64f
1:36 14 17 mph 1013.8mb 66f 63f
1:30 14 20 mph 1013.9mb 66f 63f
1:24 16 20 mph 1014mb 66f 62f
1:18 17 23 mph 1014mb 66f 63f
1:12 17 20 mph 1014mb 66f 63f
1:06 15 18 mph 1014mb 66f 63f
1:00 14 16 mph 1014mb 66f 63f
12:54 15 16 mph 1013.9mb 66f 62f
12:48 15 16 mph 1013.9mb 66f 62f
12:42 15 17 mph 1013.9mb 66f 62f
12:36 15 17 mph 1014mb 66f 62f
12:30 14 16 mph 1013.9mb 66f 62f
12:24 15 16 mph 1014mb 66f 62f
12:18 14 18 mph 1014mb 66f 62f
12:12 13 16 mph 1013.8mb 66f 63f
12:06 13 15 mph 1013.7mb 66f 63f
12:00 11 14 mph 1013.7mb 66f 62f
11:54 11 14 mph 1013.7mb 66f 62f
11:48 11 15 mph 1013.8mb 66f 62f
11:42 15 17 mph 1013.8mb 66f 62f
11:36 11 17 mph 1013.8mb 66f 63f
11:30 13 17 mph 1013.7mb 66f 63f
11:24 14 15 mph 1013.7mb 66f 63f
11:18 9 15 mph 1013.6mb 66f 63f
11:12 15 16 mph 1013.7mb 66f 63f
11:06 14 16 mph 1013.8mb 66f 62f
11:00  -  mph 1013.6mb 66f 62f
10:54  -  mph 1013.7mb 66f 63f
10:48 10 13 mph 1013.6mb 66f 63f
10:42 11 14 mph 1013.6mb 66f 63f
10:36 10 13 mph 1013.6mb 66f 63f
10:30 10 14 mph 1013.5mb 66f 63f
10:24 11 13 mph 1013.4mb 66f 63f
10:18 11 14 mph 1013.5mb 66f 63f
10:12 9 11 mph 1013.5mb 66f 63f
10:06 11
mph
1013.5mb 66f 63f
10:00 10 13 mph 1013.5mb 66f 62f
9:54 9 13 mph 1013.4mb 66f 62f
9:48 8 10 mph 1013.4mb 66f 62f
9:42 7 8 mph 1013.4mb 66f 62f
9:36 6 8 mph 1013.3mb 66f 62f
9:30 8 9 mph 1013.3mb 66f 62f
9:24 7 9 mph 1013.3mb 66f 62f
9:18 8 10 mph 1013.3mb 66f 62f
9:12 8 10 mph 1013.4mb 66f 62f
9:06 8 9 mph 1013.3mb 66f 62f
9:00 9 10 mph 1013.4mb 66f 62f
8:54 6 8 mph 1013.3mb 66f 63f
8:48 5 7 mph 1013.3mb 66f 63f
8:42 5 7 mph 1013.2mb 66f 63f
8:36 3 5 mph 1013.1mb 66f 63f
8:30 2 7 mph 1013.2mb 66f 63f
8:24 5 7 mph 1013.2mb 66f 62f
8:18 3 6 mph 1013.2mb 66f 63f
8:12 5 6 mph 1013.3mb 66f 62f
8:06 3 5 mph 1013.4mb 66f 62f
8:00 2 5 mph 1013.3mb 66f 62f
7:54 3 7 mph 1013.4mb 66f 62f
7:48 2 5 mph 1013.4mb 66f 62f
7:42 2 3 mph 1013.4mb 66f 62f
7:36 3 5 mph 1013.4mb 66f 62f
7:30 2 6 mph 1013.3mb 66f 62f
7:24 5 6 mph 1013.3mb 66f 62f
7:18 5 6 mph 1013.3mb 66f 62f
7:12 5 7 mph 1013.4mb 66f 62f
7:06 5 7 mph 1013.4mb 66f 61f
7:00 5 6 mph 1013.3mb 66f 61f
6:54 3 5 mph 1013.2mb 66f 61f
6:48 3 5 mph 1013.1mb 66f -
6:42 3 5 mph 1013.1mb 66f -
6:36 3
mph
1012.9mb 66f -
6:30 3 5 mph 1012.9mb 66f 61f
6:24 3
mph
1012.8mb 66f 61f
6:18 3 5 mph 1012.8mb 66f 61f
6:12 3 5 mph 1012.7mb 66f 61f
6:06 2 3 mph 1012.7mb 66f 61f
6:00 3 5 mph 1012.7mb 66f 61f
5:54 3
mph
1012.7mb 66f 61f
5:48 2 3 mph 1012.7mb 66f 61f
5:42 1 5 mph 1012.8mb 66f 61f
5:36 3 5 mph 1012.8mb 66f 61f
5:30 2 3 mph 1012.9mb 66f 61f
5:24 2 3 mph 1012.9mb 66f 61f
5:18 2 5 mph 1012.8mb 66f 61f
5:12 3 5 mph 1012.9mb 66f 61f
5:06 5 7 mph 1012.9mb 66f 61f
5:00 3 5 mph 1012.9mb 66f 61f
4:54 3 5 mph 1012.8mb 66f 61f
4:48 2 5 mph 1012.8mb 66f 61f
4:42 3
mph
1012.8mb 66f 61f
4:36 2 3 mph 1012.7mb 66f 61f
4:30 2 3 mph 1012.7mb 66f 61f
4:24 2 3 mph 1012.7mb 66f 61f
4:18 3
mph
1012.8mb 66f 61f
4:12 2 3 mph 1012.8mb 66f 61f
4:06 1 2 mph 1012.8mb 66f 61f
4:00  -  1 mph 1012.8mb 66f 61f
3:54  -  3 mph 1012.8mb 66f 61f
3:48 1 3 mph 1012.9mb 66f 61f
3:42 2 3 mph 1012.9mb 66f 61f
3:36 2 3 mph 1012.9mb 66f 61f
3:30 2 3 mph 1013mb 66f 61f
3:24 2 5 mph 1013mb 66f 61f
3:18 5 6 mph 1013.1mb 66f 61f
3:12 3 5 mph 1013.1mb 66f 61f
3:06 3 5 mph 1012.8mb 66f 61f
3:00 3 5 mph 1012.9mb 67f 61f
2:54 5 6 mph 1013mb 67f 61f
2:48 3 6 mph 1013.1mb 67f 61f
2:42 6
mph
1013.2mb 67f 61f
2:36 5 7 mph 1013.2mb 67f 61f
2:30 6 7 mph 1013.2mb 67f 61f
2:24 3 6 mph 1013.4mb 67f 61f
2:18 2 3 mph 1013.2mb 67f 61f
2:12 2 5 mph 1013.2mb 67f 61f
2:06 3 6 mph 1013.3mb 67f 61f
2:00 5 6 mph 1013.3mb 67f 61f
1:54 2 5 mph 1013.2mb 67f 61f
1:48 3 5 mph 1013.1mb 67f 61f
1:42 3
mph
1013.2mb 67f 61f
1:36 3 5 mph 1013.4mb 67f 61f
1:30 3 5 mph 1013.6mb 67f 61f
1:24 2 5 mph 1013.5mb 67f 61f
1:18 2 3 mph 1013.6mb 67f 61f
1:12 3 5 mph 1013.6mb 67f 61f
1:06 3 5 mph 1013.6mb 67f 61f
1:00 3 5 mph 1013.7mb 67f 61f
12:54 3 7 mph 1013.7mb 67f 61f
12:48 5 7 mph 1013.8mb 67f 61f
12:42 2 5 mph 1013.7mb 67f 61f
12:36 1 3 mph 1013.7mb 67f 61f
12:30 3 5 mph 1013.7mb 67f 61f
12:24 5 7 mph 1013.6mb 67f 61f
12:18 5 6 mph 1013.8mb 67f 61f
12:12 6 7 mph 1013.9mb 67f 61f
12:06 6 7 mph 1013.8mb 67f 61f
12:00 5 7 mph 1013.9mb 67f 60f
mié 05/04 11:54 3 6 mph 1013.9mb 67f 60f
11:48 2 3 mph 1013.9mb 67f 60f
11:42 2 3 mph 1013.9mb 67f 60f
11:36 3
mph
1013.8mb 67f 60f
11:30 2
mph
1013.8mb 67f 60f
11:24 2
mph
1013.9mb 67f 60f
11:18 2 3 mph 1013.9mb 67f 60f
11:12 2 3 mph 1013.9mb 67f 60f
11:06 2 3 mph 1013.9mb 67f 59f
11:00 2
mph
1014mb 67f 60f
10:54 1 2 mph 1014mb 66f 60f
10:48  -  mph 1014mb 66f 60f
10:42  -  mph 1014mb 66f 60f
10:36  -  mph 1014mb 66f 60f
10:30 2
mph
1014.1mb 66f 60f
10:24 2
mph
1014.1mb 66f 60f
10:18 2
mph
1014.2mb 66f 60f
10:12 1 2 mph 1014.1mb 66f 60f
10:06 1 2 mph 1014.2mb 67f 60f
10:00 1 2 mph 1014.2mb 67f 60f
9:54 2
mph
1014.3mb 67f 60f
9:48 2
mph
1014.2mb 67f 60f
9:42 2 5 mph 1014.2mb 67f 61f
9:36 2 3 mph 1014.2mb 67f 61f
9:30 1 2 mph 1014.2mb 67f 60f
9:24 1 2 mph 1014.1mb 67f 60f
9:18 1 3 mph 1014.1mb 67f 60f
9:12 2 5 mph 1014.1mb 67f 61f
9:06 2 5 mph 1014mb 67f 61f
9:00 2 5 mph 1014mb 67f 61f
8:54 2 3 mph 1014mb 67f 61f
8:48  -  mph 1013.9mb 67f 61f
8:42  -  mph 1013.9mb 67f 61f
8:36  -  mph 1013.9mb 67f 61f
8:30 2 3 mph 1013.8mb 67f 61f
8:24 2 5 mph 1013.8mb 67f 61f
8:18 3 5 mph 1013.7mb 67f 61f
8:12 3 5 mph 1013.6mb 67f 61f
8:06 3 5 mph 1013.6mb 67f 61f
8:00  -  mph 1013.5mb 67f -
7:54  -  mph 1013.6mb 67f -
7:48 3 6 mph 1013.6mb 67f -
7:42 5 6 mph 1013.5mb 67f -
7:36 5 6 mph 1013.4mb 67f -
7:30 3 5 mph 1013.4mb 67f 61f
7:24 3 5 mph 1013.4mb 67f 61f
7:18  -  mph 1013.5mb 67f 61f
7:12  -  mph 1013.5mb 67f 61f
7:06  -  mph 1013.5mb 67f 61f
7:00  -  mph 1013.4mb 67f 62f
6:54  -  mph 1013.5mb 67f 61f
6:48  -  mph 1013.5mb 67f -
6:42  -  mph 1013.5mb 67f -
6:36  -  mph 1013.6mb 67f -
6:30 6 7 mph 1013.6mb 67f -
6:24 6 8 mph 1013.7mb 67f -
6:18  -  mph 1013.6mb 67f 62f
6:12  -  mph 1013.7mb 67f 62f
6:06  -  mph 1013.7mb 67f 62f
6:00  -  mph 1013.7mb 67f -
5:54  -  mph 1013.7mb 67f -
5:48 6 8 mph 1013.8mb 67f -
5:42 6 8 mph 1013.7mb 67f -
5:36 6 8 mph 1013.7mb 67f -
5:30 8 10 mph 1013.6mb 67f -
5:24 8 9 mph 1013.6mb 67f -
5:18  -  mph 1013.5mb 67f 61f
5:12  -  mph 1013.5mb 67f 61f
5:06  -  mph 1013.5mb 67f 61f
5:00  -  mph 1013.5mb 67f 61f
4:54  -  mph 1013.6mb 67f 61f
4:48  -  mph - 67f -
4:42  -  mph - 67f -
4:36  -  mph - 67f -
4:30  -  mph 1013.6mb - -
4:24  -  mph 1013.6mb - -
4:18 7 10 mph 1013.4mb 67f -
4:12 8 11 mph 1013.4mb 67f -
4:06 8 11 mph 1013.4mb 68f -
4:00  -  mph 1013.5mb 68f -
3:54  -  mph 1013.5mb 68f -
3:48  -  mph - 68f -
3:42  -  mph - 67f -
3:36  -  mph - 67f -
3:30 10 13 mph 1013.6mb 67f 61f
3:24 9 11 mph 1013.6mb 67f 61f
3:18  -  mph 1013.6mb 67f 62f
3:12  -  mph 1013.6mb 67f 62f
3:06  -  mph 1013.6mb 67f 62f
3:00  -  mph 1013.6mb 67f 62f
2:54  -  mph 1013.6mb 67f 62f
2:48  -  mph 1013.6mb 67f 61f
2:42  -  mph 1013.6mb 67f 62f
2:36  -  mph 1013.6mb 67f 62f
2:30 8 10 mph 1013.6mb 67f 61f
2:24 8 9 mph 1013.7mb 67f 62f
2:18 8 9 mph 1013.7mb 67f 61f
2:12 7 8 mph 1013.8mb 67f 61f
2:06 7 10 mph 1013.8mb 67f 61f
2:00 8 10 mph 1013.8mb 67f 61f
1:54 9 10 mph 1013.8mb 67f 61f
1:48 10 11 mph 1013.9mb 67f 61f
1:42 9 10 mph 1013.9mb 67f 61f
1:36 9 10 mph 1013.9mb 67f 61f
1:30 9 10 mph 1014mb 67f 61f
1:24 8 10 mph 1014mb 67f 61f
1:18 8 9 mph 1014mb 67f 61f
1:12 9 10 mph 1014.1mb 67f 61f
1:06 8 9 mph 1014.1mb 67f 61f
1:00 7 9 mph 1014.1mb 66f 61f
12:54 7 9 mph 1014.1mb 66f 61f
12:48 8 9 mph 1014.2mb 66f 61f
12:42 7 10 mph 1014.2mb 66f 61f
12:36 7 10 mph 1014.3mb 66f 61f
12:30 8 9 mph 1014.3mb 66f 61f
12:24 7 10 mph 1014.3mb 66f 61f
12:18 7 9 mph 1014.4mb 66f 61f
12:12 7 8 mph 1014.4mb 66f 61f
12:06 7 8 mph 1014.5mb 66f 61f
12:00 6 8 mph 1014.6mb 66f 61f
11:54 8 9 mph 1014.7mb 66f 61f
11:48 8 10 mph 1014.7mb 66f 61f
11:42 8 10 mph 1014.8mb 66f 61f
11:36 9 11 mph 1014.9mb 66f 61f
11:30 9 11 mph 1014.9mb 66f 61f
11:24 7 9 mph 1014.9mb 66f 61f
11:18 8 9 mph 1014.9mb 66f 61f
11:12 7 8 mph 1014.8mb 66f 61f
11:06 7 8 mph 1014.8mb 66f 61f
11:00 5 7 mph 1014.8mb 66f 62f
10:54 6
mph
1014.8mb 66f 62f
10:48 2 5 mph 1014.8mb 66f 62f
10:42 3 6 mph 1014.8mb 66f 62f
10:36 3 5 mph 1014.8mb 66f 62f
10:30 3 6 mph 1014.8mb 66f 62f
10:24 5 6 mph 1014.8mb 66f 61f
10:18 5 7 mph 1014.8mb 66f 61f
10:12 6 7 mph 1014.9mb 66f 61f
10:06 6 8 mph 1014.9mb 66f 61f
10:00 6 7 mph 1015mb 66f 61f
9:54 6 7 mph 1014.9mb 66f 61f
9:48 6 7 mph 1014.9mb 66f 61f
9:42 7 9 mph 1014.9mb 65f 61f
9:36 6 8 mph 1014.8mb 65f 61f
9:30 8
mph
1014.8mb 65f 61f
9:24 9 10 mph 1014.7mb 65f 60f
9:18 8 9 mph 1014.6mb 65f 61f
9:12 8 10 mph 1014.6mb 65f 60f
9:06 8 10 mph 1014.6mb 65f 60f
9:00 8 9 mph 1014.5mb 65f 60f
8:54 7 9 mph 1014.5mb 65f 61f
8:48 7 8 mph 1014.5mb 65f 61f
8:42 6 8 mph 1014.4mb 65f 61f
8:36 6 8 mph 1014.3mb 65f 61f
8:30 6 8 mph 1014.3mb 65f 61f
8:24 7
mph
1014.2mb 65f 61f
8:18 5 7 mph 1014.3mb 65f 61f
8:12 6 7 mph 1014.2mb 65f 61f
8:06 3 5 mph 1014.2mb 65f 61f
8:00  -  1 mph 1014.1mb 65f 61f
7:54  -  6 mph 1014.1mb 65f 61f
7:48 5 6 mph 1014.1mb 65f -
7:42 2 3 mph 1014.3mb 65f -
7:36 3 5 mph 1014.3mb 65f -
7:30 3 5 mph 1014.4mb 65f 61f
7:24 3 5 mph 1014.4mb 65f 60f
7:18 3 5 mph 1014.3mb 66f 60f
7:12 5 7 mph 1014.3mb 66f 60f
7:06 6 8 mph 1014.2mb 66f 60f
7:00 5 7 mph 1014.2mb 66f 60f
6:54 5 7 mph 1014.2mb 66f 60f
6:48  -  2 mph - - -
6:42  -  1 mph - - -
6:36 2 5 mph - - -
6:30 6 7 mph 1013.9mb 66f 60f
6:24 5 6 mph 1014mb 66f 60f
6:18 5 6 mph 1013.8mb 66f 60f
6:12 5 6 mph 1013.7mb 66f 60f
6:06 3 6 mph 1013.6mb 66f 60f
6:00 6 7 mph 1013.6mb 66f 60f
5:54 6 8 mph 1013.7mb 66f 60f
5:48 6 8 mph 1013.7mb 66f 60f
5:42 6 8 mph 1013.7mb 66f 60f
5:36 7 8 mph 1013.7mb 66f 60f
5:30 3 6 mph 1013.7mb 66f 60f
5:24 5 6 mph 1013.6mb 66f 60f
5:18 5 6 mph 1013.6mb 66f 60f
5:12 5 6 mph 1013.6mb 66f 60f
5:06 5 6 mph 1013.6mb 66f 60f
5:00 3 5 mph 1013.6mb 66f 60f
4:54 3 7 mph 1013.7mb 66f 60f
4:48 6 7 mph 1013.7mb 66f 60f
4:42 3 5 mph 1013.7mb 66f 60f
4:36 2 5 mph 1013.8mb 66f 60f
4:30 3 6 mph 1013.8mb 66f 60f
4:24 3 7 mph 1013.8mb 66f 60f
4:18 6 7 mph 1013.8mb 66f 60f
4:12 5 7 mph 1013.9mb 66f 60f
4:06 6 9 mph 1013.9mb 66f 60f
4:00 5 7 mph 1013.8mb 66f 60f
3:54 2 3 mph 1013.9mb 66f 60f
3:48 2 5 mph 1013.9mb 66f 60f
3:42 3 7 mph 1013.9mb 66f 60f
3:36 7 8 mph 1014mb 66f 60f
3:30 1 5 mph 1014mb 66f 60f
3:24 5 8 mph 1014mb 66f 60f
3:18 5 8 mph 1014mb 66f 60f
3:12 3 5 mph 1014mb 66f 60f
3:06 5 6 mph 1014mb 66f 60f
3:00 5 7 mph 1013.9mb 66f 60f
2:54 3 6 mph 1013.9mb 66f 61f
2:48 6 8 mph 1014mb 66f 61f
2:42 5 9 mph 1014mb 66f 61f
2:36 6 8 mph 1014.1mb 66f 61f
2:30 5 7 mph 1014.1mb 66f 61f
2:24 2 6 mph 1014.1mb 66f 61f
2:18 2 3 mph 1014.1mb 66f 61f
2:12 2 5 mph 1014.1mb 66f 61f
2:06 2 5 mph 1014.2mb 66f 61f
2:00 2 5 mph 1014.2mb 66f 61f
1:54  -  2 mph 1014.2mb 66f 61f
1:48 2
mph
1014.3mb 66f 61f
1:42  -  2 mph 1014.5mb 66f 61f
1:36 2 5 mph 1014.4mb 67f 61f
1:30 3 7 mph 1014.4mb 67f 61f
1:24 2 5 mph 1014.5mb 67f 61f
1:18 5 7 mph 1014.6mb 67f 61f
1:12 3 5 mph 1014.6mb 67f 61f
1:06 3 5 mph 1014.7mb 67f 61f
1:00 2 5 mph 1014.8mb 67f 61f
12:54 3 7 mph 1014.8mb 67f 61f
12:48 3 7 mph 1014.8mb 67f 61f
12:42 5 6 mph 1014.8mb 67f 61f
12:36 5 7 mph 1014.8mb 67f 61f
12:30 5 6 mph 1014.9mb 67f 61f
12:24 5 6 mph 1014.9mb 67f 61f
12:18 2 5 mph 1015mb 67f 61f
12:12 2 3 mph 1015mb 67f 61f
12:06 3 5 mph 1014.9mb 67f 61f
12:00 5 7 mph 1015mb 67f 61f
mar 05/03 11:54 3 5 mph 1014.8mb 67f 61f
11:48 3 5 mph 1014.8mb 67f 61f
11:42 2 3 mph 1014.9mb 66f 61f
11:36 2
mph
1015mb 66f 61f
11:30  -  2 mph 1014.9mb 67f 61f
11:24 1 3 mph 1014.9mb 66f 61f
11:18 1 2 mph 1014.8mb 66f 61f
11:12 2
mph
1014.8mb 66f 61f
11:06  -  2 mph 1014.8mb 66f 61f
11:00 2 3 mph 1014.9mb 66f 61f
10:54 2 3 mph 1014.9mb 66f 61f
10:48  -  mph 1014.9mb 66f 61f
10:42  -  mph 1014.9mb 66f 61f
10:36  -  mph 1014.9mb 65f 61f
10:30 6 8 mph 1014.9mb 66f 61f
10:24 3 6 mph 1014.8mb 66f 61f
10:18 6 8 mph 1014.9mb 66f 61f
10:12 5 6 mph 1014.8mb 66f 61f
10:06 3 6 mph 1014.8mb 66f 61f
10:00 3 7 mph 1014.8mb 66f 61f
9:54 5 7 mph 1014.7mb 66f 61f
9:48 2 7 mph 1014.6mb 66f 61f
9:42 6 7 mph 1014.6mb 66f 61f
9:36 5 6 mph 1014.5mb 66f 61f
9:30 5 6 mph 1014.5mb 66f 61f
9:24 6 8 mph 1014.5mb 66f 61f
9:18 5 6 mph 1014.4mb 66f 61f
9:12 6 7 mph 1014.4mb 66f 61f
9:06 6 7 mph 1014.3mb 66f 61f
9:00 6 9 mph 1014.2mb 67f 61f
8:54 8 10 mph 1014.2mb 67f 61f
8:48  -  mph 1014.2mb 67f 61f
8:42  -  mph 1014.2mb 67f 61f
8:36  -  mph 1014.2mb 67f 61f
8:30 8 9 mph 1014.2mb 67f 61f
8:24 7 10 mph 1014.2mb 67f 61f
8:18 8 10 mph 1014.2mb 67f 61f
8:12 8 11 mph 1014.1mb 67f 61f
8:06 5 9 mph 1014.1mb 67f 61f
8:00 7 9 mph 1014mb 67f 61f
7:54 6 8 mph 1013.9mb 67f 61f
7:48  -  mph 1013.8mb 67f 61f
7:42  -  mph 1013.7mb 66f 61f
7:36  -  mph 1013.6mb 66f 61f
7:30  -  mph 1013.5mb 66f 61f
7:24  -  mph 1013.4mb 66f 61f
7:18  -  mph 1013.4mb 66f 62f
7:12  -  mph 1013.4mb 66f 62f
7:06  -  mph 1013.4mb 66f 62f
7:00  -  mph 1013.4mb 66f 62f
6:54  -  mph 1013.4mb 67f 62f
6:48  -  mph 1013.4mb 67f 62f
6:42  -  mph 1013.4mb 67f 62f
6:36  -  mph 1013.3mb 67f 62f
6:30 6 8 mph 1013.4mb 67f 63f
6:24 7 8 mph 1013.3mb 67f 63f
6:18  -  mph 1013.4mb 66f 63f
6:12  -  mph 1013.4mb 66f 63f
6:06  -  mph 1013.3mb 66f 63f
6:00  -  mph 1013.3mb 66f 64f
5:54  -  mph 1013.3mb 67f 64f
5:48  -  mph 1013.3mb 66f 63f
5:42  -  mph 1013.3mb 66f 64f
5:36  -  mph 1013.3mb 66f 63f
5:30 6
mph
1013.3mb 66f -
5:24 3 6 mph 1013.2mb 66f -
5:18  -  mph 1013.2mb 66f 64f
5:12  -  mph 1013.2mb 66f 65f
5:06  -  mph 1013.2mb 66f 65f
5:00  -  mph 1013.3mb 66f -
4:54  -  mph 1013.3mb 66f -
4:48  -  mph 1013.4mb 66f -
4:42  -  mph 1013.5mb 67f -
4:36  -  mph 1013.5mb 67f -
4:30  -  mph 1013.6mb 67f -
4:24  -  mph 1013.6mb 67f -
4:18  -  mph 1013.7mb 67f 64f
4:12  -  mph 1013.6mb 67f 64f
4:06  -  mph 1013.7mb 67f 63f
4:00  -  mph 1013.7mb 67f 64f
3:54  -  mph 1013.8mb 67f 64f
3:48  -  mph 1013.8mb 67f 64f
3:42  -  mph 1013.9mb 67f 64f
3:36  -  mph 1013.9mb 67f 65f
3:30 5 7 mph 1013.9mb 67f 65f
3:24 5 6 mph 1013.9mb 67f 64f
3:18  -  mph 1014.1mb 67f 65f
3:12  -  mph 1014.1mb 67f 64f
3:06  -  mph 1014mb 67f 65f
3:00  -  mph 1014.1mb 67f 64f
2:54  -  mph 1014.3mb 67f 65f
2:48  -  mph 1014.3mb 67f 65f
2:42  -  mph 1014.4mb 67f 65f
2:36  -  mph 1014.5mb 67f 64f
2:30 5 6 mph 1014.5mb 67f 64f
2:24 5 7 mph 1014.6mb 67f 63f
2:18 5 7 mph 1014.7mb 67f 64f
2:12 6 7 mph 1014.8mb 67f 64f
2:06 5 7 mph 1014.8mb 67f 63f
2:00 7 9 mph 1014.9mb 67f 63f
1:54 6 9 mph 1015mb 67f 62f
1:48 7 9 mph 1015.1mb 67f 63f
1:42 6 8 mph 1015.1mb 66f 63f
1:36 8 10 mph 1015.1mb 66f 63f
1:30 7 10 mph 1015.1mb - -
1:24 7 10 mph 1015.1mb - -
1:18 6 8 mph 1015mb 66f 63f
1:12 5 9 mph 1015.1mb 66f 62f
1:06 5 7 mph 1015.1mb 66f 62f
1:00 6 8 mph 1015.2mb 66f 62f
12:54 7 9 mph 1015.3mb 66f 62f
12:48 8 10 mph 1015.2mb 66f 62f
12:42 8 9 mph 1015.4mb 66f 62f
12:36 8 9 mph 1015.2mb 66f 62f
12:30 8 10 mph 1015.3mb 66f 62f
12:24 9 11 mph 1015.3mb 66f 63f
12:18 10 11 mph 1015.3mb 66f 62f
12:12 10 13 mph 1015.4mb 66f 63f
12:06 9 11 mph 1015.2mb 66f 63f
12:00 9 10 mph 1015.1mb 66f 63f
11:54 8 9 mph 1015.3mb 65f 63f
11:48 7 9 mph 1015.3mb 65f 63f
11:42 6 8 mph 1015.3mb 65f 63f
11:36 6 8 mph 1015.2mb 66f 63f
11:30 7 9 mph 1015.2mb 66f 63f
11:24 6 7 mph 1015.3mb 66f 63f
11:18 6 8 mph 1015.3mb 66f 63f
11:12 5 7 mph 1015.4mb 66f 63f
11:06 5 7 mph 1015.5mb 66f 63f
11:00 8 10 mph 1015.5mb 66f 62f
10:54 6 9 mph 1015.4mb 65f 62f
10:48 8 9 mph 1015.3mb 65f 62f
10:42 6 9 mph 1015.3mb 65f 62f
10:36 6 8 mph 1015.3mb 65f 62f
10:30 7 8 mph 1015.3mb 65f 62f
10:24 5 7 mph 1015.3mb 65f 62f
10:18 3 6 mph 1015.3mb 65f 62f
10:12 3 5 mph 1015.3mb 65f 62f
10:06 3 8 mph 1015.4mb 65f 62f
10:00 7 8 mph 1015.4mb 65f 61f
9:54 7 9 mph 1015.4mb 65f 62f
9:48 6 8 mph 1015.3mb 65f 62f
9:42 6 8 mph 1015.3mb 64f 62f
9:36 5 7 mph 1015.2mb 64f 62f
9:30 2 6 mph 1015.1mb 64f 63f
9:24 3 7 mph 1015mb 64f 62f
9:18 6 8 mph 1015mb 64f 62f
9:12 5 6 mph 1014.9mb 64f 62f
9:06 3 5 mph 1014.9mb 64f 63f
9:00  -  3 mph 1015mb 64f 64f
8:54 3 6 mph 1015mb 64f 62f
8:48 2 5 mph 1014.9mb 65f 62f
8:42 2 5 mph 1014.9mb 65f 62f
8:36 3 5 mph 1014.9mb 65f 62f
8:30 2 3 mph 1014.9mb 65f 62f
8:24 2 3 mph 1014.9mb 65f 62f
8:18 3 5 mph 1014.9mb 65f 61f
8:12 3
mph
1014.9mb 65f 61f
8:06 3 5 mph 1014.9mb 65f 61f
8:00 2 5 mph 1014.8mb 65f 62f
7:54 3 5 mph 1014.8mb 65f 61f
7:48 3 5 mph 1014.8mb - -
7:42 3 5 mph 1014.7mb - -
7:36 3 5 mph 1014.6mb - -
7:30 2 3 mph 1014.6mb 65f 61f
7:24 2 3 mph 1014.6mb 65f 61f
7:18 1 5 mph 1014.5mb 65f 61f
7:12 3 5 mph 1014.5mb 65f 60f
7:06 3 5 mph 1014.6mb 65f 60f
7:00 3 6 mph 1014.5mb 65f 60f
6:54 6 8 mph 1014.5mb 65f 60f
6:48 5 7 mph 1014.5mb 65f 60f
6:42 6 7 mph 1014.4mb 65f 60f
6:36 6 9 mph 1014.3mb 65f 60f
6:30 8 10 mph 1014.2mb 65f 60f
6:24 8 10 mph 1014.3mb 65f 60f
6:18 9 10 mph 1014.2mb 65f 60f
6:12 7 10 mph 1014.3mb 65f 60f
6:06 7 10 mph 1014.3mb 65f 60f
6:00 6 8 mph 1014.3mb 65f 60f
5:54 8
mph
1014.3mb 65f 60f
5:48 9 11 mph 1014.2mb 65f 60f
5:42 7 9 mph 1014.2mb 65f 60f
5:36 5 6 mph 1014.3mb 65f 61f
5:30 6 8 mph 1014.2mb 65f 61f
5:24 7 9 mph 1014.2mb 65f 61f
5:18 6 7 mph 1014.2mb 65f 61f
5:12 6 8 mph 1014.3mb 65f 61f
5:06 6 8 mph 1014.2mb 65f 61f
5:00 5 7 mph 1014.2mb 65f 61f
4:54 6 8 mph 1014.3mb 65f 61f
4:48 5 6 mph 1014.2mb 65f 61f
4:42 2 7 mph 1014.2mb 65f 61f
4:36 6 8 mph 1014.2mb 65f 61f
4:30 6 7 mph 1014.2mb 65f 61f
4:24 7 8 mph 1014.2mb 65f 61f
4:18 5 8 mph 1014.3mb 65f 61f
4:12 6 8 mph 1014.2mb 65f 61f
4:06 7 8 mph 1014.2mb 65f 61f
4:00 6
mph
1014.2mb 65f 61f
3:54 6
mph
1014.3mb 65f 61f
3:48 3 5 mph 1014.2mb 65f 61f
3:42 1 5 mph 1014.3mb 65f 61f
3:36 3 5 mph 1014.3mb 65f 61f
3:30 3
mph
1014.3mb 65f 61f
3:24 3
mph
1014.2mb 65f 61f
3:18 3 5 mph 1014.2mb 65f 61f
3:12  -  1 mph 1014.3mb 65f 60f
3:06  -  1 mph 1014.4mb 65f 60f
3:00 1 2 mph 1014.3mb 65f 60f
2:54 1
mph
1014.3mb 65f 60f
2:48 1 2 mph 1014.4mb 65f 61f
2:42 1 2 mph 1014.4mb 65f 61f
2:36 2
mph
1014.5mb 65f 61f
2:30 2
mph
1014.5mb 65f 61f
2:24 2 3 mph 1014.4mb 65f 61f
2:18 2 3 mph 1014.4mb 65f 61f
2:12 3
mph
1014.4mb 65f 61f
2:06 2
mph
1014.5mb 65f 60f
2:00 2 3 mph 1014.5mb 65f 61f
1:54 3 5 mph 1014.6mb 65f 61f
1:48 2
mph
1014.6mb 65f 61f
1:42 1 3 mph 1014.7mb 65f 61f
1:36 2 3 mph 1014.7mb 66f 61f
1:30 2 3 mph 1014.7mb 66f 61f
1:24 2 3 mph 1014.8mb 66f 61f
1:18 3
mph
1014.9mb 66f 61f
1:12 2 3 mph 1015mb 66f 61f
1:06 2 3 mph 1015mb 65f 61f
1:00 2 3 mph 1015.1mb 65f 61f
12:54 2 5 mph 1015.1mb 66f 61f
12:48 3 5 mph 1015.1mb 66f 61f
12:42 3 5 mph 1015.2mb 66f 61f
12:36 3 5 mph 1015.2mb 66f 61f
12:30 3
mph
1015.2mb 66f 61f
12:24 3 5 mph 1015.2mb 65f 61f
12:18 3
mph
1015.3mb 65f 61f
12:12 3
mph
1015.4mb 65f 61f
12:06 2 3 mph 1015.4mb 66f 62f
12:00 3
mph
1015.4mb 66f 62f
lun 05/02 11:54 2 3 mph 1015.4mb 66f 62f
11:48 2 3 mph 1015.5mb 66f 62f
11:42 1 2 mph 1015.5mb 66f 62f
11:36 2 3 mph 1015.6mb 66f 62f
11:30  -  6 mph 1015.7mb 66f 62f
11:24 6 7 mph 1015.7mb 66f 62f
11:18 5 7 mph 1015.8mb 66f 62f
11:12 3 5 mph 1015.7mb 66f 62f
11:06 3 6 mph 1015.9mb 66f 62f
11:00 2 3 mph 1015.7mb 66f 62f
10:54  -  5 mph 1015.8mb 66f 62f
10:48 3 6 mph 1015.7mb 66f 62f
10:42 5 7 mph 1015.7mb 66f 62f
10:36 6 7 mph 1015.8mb 66f 62f
10:30 6 7 mph 1015.8mb 66f 62f
10:24 5 6 mph 1015.9mb 66f 62f
10:18 5 6 mph 1015.8mb 66f 62f
10:12 7 8 mph 1015.8mb 66f 62f
10:06 6 8 mph 1015.8mb 66f 62f
10:00 5 6 mph 1015.9mb 66f 62f
9:54 5 6 mph 1015.9mb 66f 62f
9:48 3 6 mph 1015.9mb 66f 62f
9:42 5 6 mph 1015.9mb 66f 62f
9:36 6
mph
1015.9mb 66f 62f
9:30 3 5 mph 1015.9mb 66f 62f
9:24 5
mph
1015.9mb 66f 62f
9:18 3 6 mph 1015.8mb 66f 62f
9:12 5 6 mph 1015.8mb 66f 62f
9:06 6 7 mph 1015.7mb 66f 62f
9:00 6 7 mph 1015.7mb 66f 62f
8:54 5 7 mph 1015.5mb 66f 62f
8:48 5 6 mph 1015.5mb 66f 62f
8:42 3 6 mph 1015.5mb 66f 62f
8:36 5 6 mph 1015.5mb 66f 62f
8:30 5 8 mph 1015.4mb 66f 62f
8:24 7 9 mph 1015.4mb 66f 62f
8:18 6 7 mph 1015.5mb 66f 62f
8:12 3 6 mph 1015.3mb 66f 62f
8:06 2 6 mph 1015.4mb 66f 62f
8:00 6 8 mph 1015.2mb 66f 61f
7:54 6 7 mph 1015.2mb 66f 62f
7:48  -  mph 1015.1mb 66f -
7:42  -  mph 1015mb 66f -
7:36  -  mph 1014.9mb 65f -
7:30 3 6 mph 1014.8mb 65f 62f
7:24 5 6 mph 1014.7mb 65f 62f
7:18  -  mph 1014.8mb 66f 62f
7:12  -  mph 1014.9mb 66f 62f
7:06  -  mph 1014.8mb 66f 62f
7:00  -  mph 1014.7mb 66f 62f
6:54  -  mph 1014.7mb 66f 62f
6:48 6 7 mph 1014.7mb 66f -
6:42 5 7 mph 1014.7mb 66f -
6:36 6 7 mph 1014.6mb 66f -
6:30 6 7 mph 1014.6mb 67f -
6:24 6 8 mph 1014.6mb 66f -
6:18  -  mph 1014.6mb 66f 62f
6:12  -  mph 1014.7mb 66f 62f
6:06  -  mph 1014.8mb 67f 62f
6:00  -  mph 1014.8mb 66f 62f
5:54  -  mph 1014.8mb 66f 62f
5:48 7 9 mph 1014.8mb 67f -
5:42 8 10 mph 1014.9mb 67f -
5:36 7 9 mph 1015mb 67f -
5:30 7 9 mph 1015mb 67f 62f
5:24 7 10 mph 1015mb 67f 62f
5:18  -  mph 1014.9mb 67f 62f
5:12  -  mph 1015mb 67f 62f
5:06  -  mph 1015mb 67f 62f
5:00  -  mph 1015mb 67f 62f
4:54  -  mph 1015mb 67f 62f
4:48  -  mph 1014.9mb - -
4:42  -  mph 1014.8mb - -
4:36  -  mph 1014.9mb - -
4:30  -  mph - 67f -
4:24  -  mph - 67f -
4:18 8 10 mph 1014.9mb 67f -
4:12 8 11 mph 1015mb 67f -
4:06 8 10 mph 1014.9mb 67f -
4:00 9 11 mph 1014.9mb 67f 63f
3:54 10 11 mph 1015mb 67f 63f
3:48  -  mph 1015.1mb - -
3:42  -  mph 1015.1mb - -
3:36  -  mph 1015.1mb - -
3:30  -  mph 1015.1mb 67f -
3:24  -  mph 1015.2mb 66f -
3:18  -  mph 1015.2mb 66f 63f
3:12  -  mph 1015.3mb 66f 63f
3:06  -  mph 1015.3mb 66f 63f
3:00  -  mph 1015.2mb 66f 63f
2:54  -  mph 1015.2mb 66f 63f
2:48  -  mph 1015.3mb 66f -
2:42  -  mph 1015.4mb 67f -
2:36  -  mph 1015.4mb 66f -
2:30 10 13 mph 1015.4mb 66f 63f
2:24 9 14 mph 1015.4mb 66f 63f
2:18 10 14 mph 1015.4mb 67f 62f
2:12 11 14 mph 1015.4mb 67f 63f
2:06 11 14 mph 1015.6mb 67f 63f
2:00 11 15 mph 1015.6mb 67f 63f
1:54 10 15 mph 1015.6mb 67f 64f
1:48 11 14 mph 1015.6mb 67f 64f
1:42 11 14 mph 1015.7mb 66f 64f
1:36 11 15 mph 1015.7mb 66f 64f
1:30 11 15 mph 1015.6mb 66f 64f
1:24 11 14 mph 1015.7mb 66f 64f
1:18 11 14 mph 1015.7mb 66f 63f
1:12 10 13 mph 1015.8mb 66f 63f
1:06 9 13 mph 1015.9mb 66f 64f
1:00 11 13 mph 1015.9mb 66f 63f
12:54 8 11 mph 1015.9mb 66f 63f
12:48 10 13 mph 1016mb 66f 63f
12:42 8 11 mph 1016mb 66f 63f
12:36 9 11 mph 1016mb 65f 63f
12:30 8 10 mph 1016mb 66f 63f
12:24 9 10 mph 1016mb 66f 62f
12:18 8 10 mph 1016.1mb 66f 62f
12:12 9 10 mph 1016.1mb 66f 62f
12:06 9 10 mph 1016.1mb 66f 62f
12:00 9 13 mph 1016.2mb 65f 62f
11:54 9 10 mph 1016.2mb 65f 62f
11:48 9 11 mph 1016.3mb 65f 62f
11:42 9 11 mph 1016.4mb 65f 62f
11:36 9 10 mph 1016.5mb 65f 62f
11:30 9 11 mph 1016.5mb 65f 62f
11:24 8 10 mph 1016.5mb 65f 62f
11:18 8 9 mph 1016.5mb - 62f
11:12 7 9 mph 1016.6mb - 62f
11:06 8 10 mph 1016.6mb - 62f